createdAt,value
2022-09-04T00:02:46.798Z,101280.0
2022-09-04T00:07:46.802Z,101290.0
2022-09-04T00:12:46.799Z,101280.0
2022-09-04T00:17:46.803Z,101300.0
2022-09-04T00:22:46.800Z,101300.0
2022-09-04T00:27:46.812Z,101300.0
2022-09-04T00:32:46.810Z,101300.0
2022-09-04T00:37:46.814Z,101310.0
2022-09-04T00:42:46.808Z,101310.0
2022-09-04T00:47:46.810Z,101320.0
2022-09-04T00:52:46.818Z,101310.0
2022-09-04T00:57:46.820Z,101320.0
2022-09-04T01:02:46.857Z,101310.0
2022-09-04T01:07:46.819Z,101330.0
2022-09-04T01:12:46.817Z,101330.0
2022-09-04T01:17:46.823Z,101340.0
2022-09-04T01:22:46.818Z,101340.0
2022-09-04T01:27:46.817Z,101350.0
2022-09-04T01:32:46.831Z,101370.0
2022-09-04T01:37:46.825Z,101350.0
2022-09-04T01:42:46.831Z,101360.0
2022-09-04T01:47:46.832Z,101360.0
2022-09-04T01:52:46.832Z,101360.0
2022-09-04T01:57:46.853Z,101370.0
2022-09-04T02:02:46.833Z,101370.0
2022-09-04T02:07:46.840Z,101370.0
2022-09-04T02:12:46.833Z,101380.0
2022-09-04T02:17:46.846Z,101380.0
2022-09-04T02:22:46.844Z,101400.0
2022-09-04T02:27:46.838Z,101390.0
2022-09-04T02:32:46.845Z,101400.0
2022-09-04T02:37:46.866Z,101400.0
2022-09-04T02:42:46.858Z,101410.0
2022-09-04T02:47:46.847Z,101410.0
2022-09-04T02:52:46.849Z,101410.0
2022-09-04T02:57:46.852Z,101420.0
2022-09-04T03:02:46.855Z,101410.0
2022-09-04T03:07:46.854Z,101420.0
2022-09-04T03:12:46.860Z,101420.0
2022-09-04T03:17:46.867Z,101420.0
2022-09-04T03:22:46.864Z,101420.0
2022-09-04T03:27:46.865Z,101420.0
2022-09-04T03:32:46.865Z,101430.0
2022-09-04T03:37:46.869Z,101430.0
2022-09-04T03:42:46.862Z,101420.0
2022-09-04T03:47:46.870Z,101430.0
2022-09-04T03:52:46.871Z,101430.0
2022-09-04T03:57:46.866Z,101430.0
2022-09-04T04:02:46.933Z,101430.0
2022-09-04T04:07:46.872Z,101440.0
2022-09-04T04:12:46.871Z,101450.0
2022-09-04T04:17:46.872Z,101460.0
2022-09-04T04:22:46.879Z,101460.0
2022-09-04T04:27:46.880Z,101470.0
2022-09-04T04:32:46.879Z,101460.0
2022-09-04T04:37:46.886Z,101470.0
2022-09-04T04:42:46.887Z,101480.0
2022-09-04T04:47:46.894Z,101480.0
2022-09-04T04:52:46.886Z,101490.0
2022-09-04T04:57:46.892Z,101490.0
2022-09-04T05:02:47.114Z,101490.0
2022-09-04T05:07:46.894Z,101490.0
2022-09-04T05:12:46.894Z,101490.0
2022-09-04T05:17:46.891Z,101500.0
2022-09-04T05:22:46.897Z,101510.0
2022-09-04T05:27:46.898Z,101520.0
2022-09-04T05:32:46.898Z,101530.0
2022-09-04T05:37:46.907Z,101540.0
2022-09-04T05:42:46.905Z,101530.0
2022-09-04T05:47:46.907Z,101540.0
2022-09-04T05:52:46.922Z,101550.0
2022-09-04T05:57:46.912Z,101560.0
2022-09-04T06:02:46.947Z,101560.0
2022-09-04T06:07:46.910Z,101570.0
2022-09-04T06:12:46.921Z,101570.0
2022-09-04T06:17:46.918Z,101570.0
2022-09-04T06:22:48.551Z,101570.0
2022-09-04T06:27:46.924Z,101570.0
2022-09-04T06:32:49.269Z,101560.0
2022-09-04T06:37:46.927Z,101580.0
2022-09-04T06:42:46.928Z,101590.0
2022-09-04T06:47:46.928Z,101590.0
2022-09-04T06:52:46.936Z,101600.0
2022-09-04T06:57:46.937Z,101600.0
2022-09-04T07:02:47.119Z,101600.0
2022-09-04T07:07:46.942Z,101590.0
2022-09-04T07:12:46.959Z,101600.0
2022-09-04T07:17:46.955Z,101610.0
2022-09-04T07:22:46.958Z,101610.0
2022-09-04T07:27:46.958Z,101610.0
2022-09-04T07:32:46.961Z,101610.0
2022-09-04T07:37:46.967Z,101620.0
2022-09-04T07:42:46.968Z,101610.0
2022-09-04T07:47:46.973Z,101620.0
2022-09-04T07:52:46.980Z,101630.0
2022-09-04T07:57:46.985Z,101620.0
2022-09-04T08:02:46.989Z,101630.0
2022-09-04T08:07:46.999Z,101630.0
2022-09-04T08:12:46.997Z,101630.0
2022-09-04T08:17:47.002Z,101640.0
2022-09-04T08:22:46.999Z,101640.0
2022-09-04T08:27:47.006Z,101650.0
2022-09-04T08:32:47.015Z,101650.0
2022-09-04T08:37:47.013Z,101650.0
2022-09-04T08:42:47.019Z,101660.0
2022-09-04T08:47:47.016Z,101660.0
2022-09-04T08:52:47.016Z,101670.0
2022-09-04T08:57:47.043Z,101660.0
2022-09-04T09:02:47.095Z,101660.0
2022-09-04T09:07:47.025Z,101670.0
2022-09-04T09:12:47.029Z,101660.0
2022-09-04T09:17:47.042Z,101660.0
2022-09-04T09:22:47.037Z,101660.0
2022-09-04T09:27:47.042Z,101650.0
2022-09-04T09:32:47.047Z,101650.0
2022-09-04T09:37:47.070Z,101650.0
2022-09-04T09:42:47.049Z,101660.0
2022-09-04T09:47:47.049Z,101660.0
2022-09-04T09:52:47.059Z,101660.0
2022-09-04T09:57:47.054Z,101650.0
2022-09-04T10:02:47.194Z,101660.0
2022-09-04T10:07:47.062Z,101660.0
2022-09-04T10:12:47.070Z,101650.0
2022-09-04T10:17:47.068Z,101660.0
2022-09-04T10:22:47.066Z,101660.0
2022-09-04T10:27:47.075Z,101660.0
2022-09-04T10:32:47.070Z,101660.0
2022-09-04T10:37:47.071Z,101650.0
2022-09-04T10:42:47.069Z,101660.0
2022-09-04T10:47:47.076Z,101660.0
2022-09-04T10:52:47.085Z,101670.0
2022-09-04T10:57:47.082Z,101660.0
2022-09-04T11:02:47.191Z,101670.0
2022-09-04T11:07:47.085Z,101660.0
2022-09-04T11:12:47.092Z,101660.0
2022-09-04T11:17:47.093Z,101650.0
2022-09-04T11:22:47.095Z,101650.0
2022-09-04T11:27:47.097Z,101650.0
2022-09-04T11:32:47.102Z,101660.0
2022-09-04T11:37:47.096Z,101660.0
2022-09-04T11:42:47.105Z,101660.0
2022-09-04T11:47:47.109Z,101660.0
2022-09-04T11:52:47.103Z,101670.0
2022-09-04T11:57:47.106Z,101660.0
2022-09-04T12:02:47.113Z,101670.0
2022-09-04T12:07:47.118Z,101670.0
2022-09-04T12:12:47.116Z,101670.0
2022-09-04T12:17:47.116Z,101670.0
2022-09-04T12:22:47.120Z,101660.0
2022-09-04T12:27:47.139Z,101660.0
2022-09-04T12:32:47.136Z,101670.0
2022-09-04T12:37:47.136Z,101670.0
2022-09-04T12:42:47.131Z,101660.0
2022-09-04T12:47:47.135Z,101680.0
2022-09-04T12:52:47.138Z,101680.0
2022-09-04T12:57:47.145Z,101680.0
2022-09-04T13:02:47.058Z,101680.0
2022-09-04T13:07:47.050Z,101670.0
2022-09-04T13:12:47.048Z,101680.0
2022-09-04T13:17:47.054Z,101690.0
2022-09-04T13:22:47.054Z,101670.0
2022-09-04T13:27:47.080Z,101680.0
2022-09-04T13:32:47.055Z,101670.0
2022-09-04T13:37:47.063Z,101670.0
2022-09-04T13:42:51.732Z,101680.0
2022-09-04T13:47:47.065Z,101690.0
2022-09-04T13:52:47.068Z,101680.0
2022-09-04T13:57:47.075Z,101680.0
2022-09-04T14:02:47.081Z,101680.0
2022-09-04T14:07:47.078Z,101680.0
2022-09-04T14:12:52.243Z,101690.0
2022-09-04T14:17:47.079Z,101680.0
2022-09-04T14:22:47.082Z,101690.0
2022-09-04T14:27:47.080Z,101670.0
2022-09-04T14:32:47.089Z,101680.0
2022-09-04T14:37:47.090Z,101680.0
2022-09-04T14:42:47.096Z,101680.0
2022-09-04T14:47:47.096Z,101690.0
2022-09-04T14:52:47.093Z,101680.0
2022-09-04T14:57:47.095Z,101670.0
2022-09-04T15:02:47.102Z,101670.0
2022-09-04T15:07:47.105Z,101680.0
2022-09-04T15:12:47.106Z,101670.0
2022-09-04T15:17:47.441Z,101670.0
2022-09-04T15:22:47.105Z,101680.0
2022-09-04T15:27:47.111Z,101670.0
2022-09-04T15:32:47.113Z,101670.0
2022-09-04T15:37:48.412Z,101660.0
2022-09-04T15:42:47.124Z,101670.0
2022-09-04T15:47:47.130Z,101670.0
2022-09-04T15:52:47.127Z,101670.0
2022-09-04T15:57:47.122Z,101670.0
2022-09-04T16:02:47.218Z,101670.0
2022-09-04T16:07:47.403Z,101670.0
2022-09-04T16:12:47.133Z,101670.0
2022-09-04T16:17:47.132Z,101660.0
2022-09-04T16:22:47.133Z,101680.0
2022-09-04T16:27:47.132Z,101670.0
2022-09-04T16:32:47.151Z,101660.0
2022-09-04T16:37:47.155Z,101670.0
2022-09-04T16:42:47.143Z,101660.0
2022-09-04T16:47:47.151Z,101670.0
2022-09-04T16:52:47.142Z,101660.0
2022-09-04T16:57:47.149Z,101670.0
2022-09-04T17:02:47.332Z,101670.0
2022-09-04T17:07:47.152Z,101670.0
2022-09-04T17:12:47.153Z,101660.0
2022-09-04T17:17:47.158Z,101670.0
2022-09-04T17:28:57.899Z,101670.0
2022-09-04T17:29:07.807Z,101670.0
2022-09-04T17:37:11.947Z,101660.0
2022-09-04T17:40:54.279Z,101670.0
2022-09-04T17:42:54.632Z,101680.0
2022-09-04T17:47:47.269Z,101680.0
2022-09-04T17:52:47.252Z,101680.0
2022-09-04T17:57:47.253Z,101690.0
2022-09-04T18:02:47.369Z,101690.0
2022-09-04T18:08:07.906Z,101700.0
2022-09-04T18:12:47.262Z,101700.0
2022-09-04T18:17:47.258Z,101700.0
2022-09-04T18:22:47.256Z,101700.0
2022-09-04T18:27:47.259Z,101710.0
2022-09-04T18:37:15.971Z,101720.0
2022-09-04T18:37:47.845Z,101740.0
2022-09-04T18:48:04.710Z,101730.0
2022-09-04T18:50:31.481Z,101730.0
2022-09-04T18:52:47.261Z,101740.0
2022-09-04T18:57:49.000Z,101750.0
2022-09-04T19:02:52.926Z,101760.0
2022-09-04T19:07:47.263Z,101760.0
2022-09-04T19:12:47.907Z,101750.0
2022-09-04T19:17:47.269Z,101760.0
2022-09-04T19:22:47.261Z,101770.0
2022-09-04T19:27:48.484Z,101760.0
2022-09-04T19:32:47.267Z,101770.0
2022-09-04T19:41:53.267Z,101770.0
2022-09-04T19:46:08.646Z,101770.0
2022-09-04T19:47:47.401Z,101770.0
2022-09-04T19:53:30.345Z,101770.0
2022-09-04T19:57:47.271Z,101770.0
2022-09-04T20:02:47.276Z,101770.0
2022-09-04T20:07:47.278Z,101770.0
2022-09-04T20:12:50.880Z,101780.0
2022-09-04T20:17:47.274Z,101780.0
2022-09-04T20:22:47.277Z,101780.0
2022-09-04T20:27:47.280Z,101780.0
2022-09-04T20:32:48.129Z,101790.0
2022-09-04T20:37:47.283Z,101790.0
2022-09-04T20:42:47.287Z,101800.0
2022-09-04T20:52:45.271Z,101800.0
2022-09-04T20:53:07.448Z,101800.0
2022-09-04T21:03:12.415Z,101810.0
2022-09-04T21:03:20.862Z,101800.0
2022-09-04T21:07:47.297Z,101800.0
2022-09-04T21:12:47.292Z,101800.0
2022-09-04T21:17:47.294Z,101800.0
2022-09-04T21:22:47.293Z,101800.0
2022-09-04T21:27:47.295Z,101810.0
2022-09-04T21:32:47.293Z,101800.0
2022-09-04T21:37:47.307Z,101800.0
2022-09-04T21:42:47.297Z,101800.0
2022-09-04T21:47:47.305Z,101800.0
2022-09-04T21:52:49.012Z,101800.0
2022-09-04T22:02:35.994Z,101800.0
2022-09-04T22:02:55.619Z,101800.0
2022-09-04T22:10:39.895Z,101800.0
2022-09-04T22:13:40.216Z,101800.0
2022-09-04T22:17:47.313Z,101800.0
2022-09-04T22:22:47.310Z,101800.0
2022-09-04T22:28:08.068Z,101820.0
2022-09-04T22:32:47.321Z,101820.0
2022-09-04T22:37:47.320Z,101820.0
2022-09-04T22:42:47.334Z,101830.0
2022-09-04T22:47:47.317Z,101830.0
2022-09-04T22:52:47.320Z,101820.0
2022-09-04T22:57:47.322Z,101830.0
2022-09-04T23:13:43.686Z,101830.0
2022-09-04T23:13:57.318Z,101820.0
2022-09-04T23:17:53.230Z,101830.0
2022-09-04T23:26:42.532Z,101830.0
2022-09-04T23:27:47.340Z,101830.0
2022-09-04T23:32:47.334Z,101830.0
2022-09-04T23:37:50.252Z,101830.0
2022-09-04T23:42:47.333Z,101820.0
2022-09-04T23:47:49.261Z,101820.0
2022-09-04T23:52:49.249Z,101820.0
2022-09-04T23:57:47.335Z,101820.0
